sensor_id;sensor_type;location;lat;lon;timestamp;pressure;altitude;pressure_sealevel;temperature;humidity
13553;BME280;6847;48.830;9.116;2023-11-21T00:01:49;97332.75;;;11.40;70.13
13553;BME280;6847;48.830;9.116;2023-11-21T00:04:36;97334.06;;;11.43;70.03
13553;BME280;6847;48.830;9.116;2023-11-21T00:07:25;97319.28;;;11.35;69.35
13553;BME280;6847;48.830;9.116;2023-11-21T00:10:12;97329.47;;;11.43;69.24
13553;BME280;6847;48.830;9.116;2023-11-21T00:13:01;97136.91;;;10.24;69.75
13553;BME280;6847;48.830;9.116;2023-11-21T00:15:48;97319.72;;;11.42;69.65
13553;BME280;6847;48.830;9.116;2023-11-21T00:18:36;97328.38;;;11.44;69.54
13553;BME280;6847;48.830;9.116;2023-11-21T00:21:21;97326.13;;;11.46;68.99
13553;BME280;6847;48.830;9.116;2023-11-21T00:24:07;97213.44;;;10.81;68.84
13553;BME280;6847;48.830;9.116;2023-11-21T00:26:52;97315.72;;;11.54;68.79
13553;BME280;6847;48.830;9.116;2023-11-21T00:29:37;97313.50;;;11.56;69.14
13553;BME280;6847;48.830;9.116;2023-11-21T00:32:26;97317.75;;;11.62;68.95
13553;BME280;6847;48.830;9.116;2023-11-21T00:35:15;97294.13;;;11.48;69.42
13553;BME280;6847;48.830;9.116;2023-11-21T00:38:01;97313.84;;;11.68;68.72
13553;BME280;6847;48.830;9.116;2023-11-21T00:40:47;97317.06;;;11.70;68.72
13553;BME280;6847;48.830;9.116;2023-11-21T00:43:41;97315.97;;;11.71;68.63
13553;BME280;6847;48.830;9.116;2023-11-21T00:46:27;97312.16;;;11.72;68.61
13553;BME280;6847;48.830;9.116;2023-11-21T00:49:14;97320.28;;;11.72;68.36
13553;BME280;6847;48.830;9.116;2023-11-21T00:52:00;97231.31;;;11.14;68.32
13553;BME280;6847;48.830;9.116;2023-11-21T00:54:49;97245.16;;;11.26;68.81
13553;BME280;6847;48.830;9.116;2023-11-21T00:57:35;97327.03;;;11.74;68.93
13553;BME280;6847;48.830;9.116;2023-11-21T01:00:21;97332.69;;;11.78;68.25
13553;BME280;6847;48.830;9.116;2023-11-21T01:03:07;97321.25;;;11.81;68.38
13553;BME280;6847;48.830;9.116;2023-11-21T01:06:21;97322.25;;;11.85;68.58
13553;BME280;6847;48.830;9.116;2023-11-21T01:09:28;97283.63;;;11.61;68.43
13553;BME280;6847;48.830;9.116;2023-11-21T01:12:14;97318.81;;;11.79;68.28
13553;BME280;6847;48.830;9.116;2023-11-21T01:15:00;97321.25;;;11.81;68.20
13553;BME280;6847;48.830;9.116;2023-11-21T01:17:45;97325.06;;;11.80;68.46
13553;BME280;6847;48.830;9.116;2023-11-21T01:20:30;97324.03;;;11.76;68.17
13553;BME280;6847;48.830;9.116;2023-11-21T01:23:19;97321.16;;;11.67;68.85
13553;BME280;6847;48.830;9.116;2023-11-21T01:26:05;97320.97;;;11.64;69.14
13553;BME280;6847;48.830;9.116;2023-11-21T01:28:52;97264.47;;;11.25;68.24
13553;BME280;6847;48.830;9.116;2023-11-21T01:31:41;97310.72;;;11.61;68.35
13553;BME280;6847;48.830;9.116;2023-11-21T01:34:29;97316.56;;;11.68;67.87
13553;BME280;6847;48.830;9.116;2023-11-21T01:37:15;97285.81;;;11.59;67.92
13553;BME280;6847;48.830;9.116;2023-11-21T01:40:08;97309.66;;;11.75;68.38
13553;BME280;6847;48.830;9.116;2023-11-21T01:42:55;97326.16;;;11.79;67.63
13553;BME280;6847;48.830;9.116;2023-11-21T01:45:41;97312.59;;;11.79;68.03
13553;BME280;6847;48.830;9.116;2023-11-21T01:48:28;97280.38;;;11.59;68.20
13553;BME280;6847;48.830;9.116;2023-11-21T01:51:14;97309.19;;;11.87;67.78
13553;BME280;6847;48.830;9.116;2023-11-21T01:54:02;97312.41;;;11.89;67.91
13553;BME280;6847;48.830;9.116;2023-11-21T01:56:50;97305.38;;;11.88;68.19
13553;BME280;6847;48.830;9.116;2023-11-21T01:59:37;97273.38;;;11.71;68.28
13553;BME280;6847;48.830;9.116;2023-11-21T02:02:22;97308.19;;;11.83;68.14
13553;BME280;6847;48.830;9.116;2023-11-21T02:05:08;97284.63;;;11.65;68.00
13553;BME280;6847;48.830;9.116;2023-11-21T02:07:53;97304.38;;;11.84;68.52
13553;BME280;6847;48.830;9.116;2023-11-21T02:10:38;97312.41;;;11.89;67.81
13553;BME280;6847;48.830;9.116;2023-11-21T02:13:26;97310.22;;;11.91;67.59
13553;BME280;6847;48.830;9.116;2023-11-21T02:16:13;97192.19;;;11.20;67.99
13553;BME280;6847;48.830;9.116;2023-11-21T02:19:00;97306.28;;;11.97;67.82
13553;BME280;6847;48.830;9.116;2023-11-21T02:21:49;97229.59;;;11.50;67.33
13553;BME280;6847;48.830;9.116;2023-11-21T02:24:37;97308.41;;;12.00;67.50
13553;BME280;6847;48.830;9.116;2023-11-21T02:27:24;97302.19;;;12.00;67.41
13553;BME280;6847;48.830;9.116;2023-11-21T02:30:11;97308.91;;;12.02;68.14
13553;BME280;6847;48.830;9.116;2023-11-21T02:32:59;97307.00;;;12.03;67.63
13553;BME280;6847;48.830;9.116;2023-11-21T02:35:47;97302.06;;;12.05;67.70
13553;BME280;6847;48.830;9.116;2023-11-21T02:38:34;97301.78;;;12.06;67.86
13553;BME280;6847;48.830;9.116;2023-11-21T02:41:21;97243.75;;;11.61;67.46
13553;BME280;6847;48.830;9.116;2023-11-21T02:44:06;97270.22;;;11.83;67.83
13553;BME280;6847;48.830;9.116;2023-11-21T02:46:51;97303.50;;;12.02;67.51
13553;BME280;6847;48.830;9.116;2023-11-21T02:49:36;97302.97;;;12.00;67.29
13553;BME280;6847;48.830;9.116;2023-11-21T02:52:22;97292.13;;;12.00;67.91
13553;BME280;6847;48.830;9.116;2023-11-21T02:57:47;97291.03;;;12.01;67.28
13553;BME280;6847;48.830;9.116;2023-11-21T03:00:32;97258.16;;;11.75;67.70
13553;BME280;6847;48.830;9.116;2023-11-21T03:03:18;97032.91;;;10.30;67.37
13553;BME280;6847;48.830;9.116;2023-11-21T03:06:04;96994.94;;;10.02;67.50
13553;BME280;6847;48.830;9.116;2023-11-21T03:08:53;97295.13;;;11.85;67.95
13553;BME280;6847;48.830;9.116;2023-11-21T03:11:40;97206.75;;;11.24;67.62
13553;BME280;6847;48.830;9.116;2023-11-21T03:14:27;97043.31;;;10.23;67.73
13553;BME280;6847;48.830;9.116;2023-11-21T03:17:13;97090.09;;;10.42;67.67
13553;BME280;6847;48.830;9.116;2023-11-21T03:19:58;97291.50;;;11.76;67.13
13553;BME280;6847;48.830;9.116;2023-11-21T03:22:44;97169.25;;;10.99;67.50
13553;BME280;6847;48.830;9.116;2023-11-21T03:25:29;97069.91;;;10.34;67.47
13553;BME280;6847;48.830;9.116;2023-11-21T03:28:15;97306.47;;;11.87;67.02
13553;BME280;6847;48.830;9.116;2023-11-21T03:31:19;97223.94;;;11.33;67.11
13553;BME280;6847;48.830;9.116;2023-11-21T03:34:05;97018.59;;;10.11;67.14
13553;BME280;6847;48.830;9.116;2023-11-21T03:36:50;97173.97;;;11.07;67.28
13553;BME280;6847;48.830;9.116;2023-11-21T03:39:36;96976.28;;;9.87;67.18
13553;BME280;6847;48.830;9.116;2023-11-21T03:42:22;97106.41;;;10.69;67.25
13553;BME280;6847;48.830;9.116;2023-11-21T03:45:12;97255.91;;;11.64;66.75
13553;BME280;6847;48.830;9.116;2023-11-21T03:48:00;97055.06;;;10.32;67.09
13553;BME280;6847;48.830;9.116;2023-11-21T03:50:47;97011.59;;;10.10;67.09
13553;BME280;6847;48.830;9.116;2023-11-21T03:53:33;97026.50;;;10.26;67.22
13553;BME280;6847;48.830;9.116;2023-11-21T03:56:19;97216.91;;;11.46;66.93
13553;BME280;6847;48.830;9.116;2023-11-21T03:59:08;96990.63;;;10.01;67.10
13553;BME280;6847;48.830;9.116;2023-11-21T04:01:55;97229.59;;;11.50;66.53
13553;BME280;6847;48.830;9.116;2023-11-21T04:04:44;97329.31;;;12.13;66.87
13553;BME280;6847;48.830;9.116;2023-11-21T04:07:30;97252.28;;;11.68;66.57
13553;BME280;6847;48.830;9.116;2023-11-21T04:10:21;97277.94;;;11.76;67.08
13553;BME280;6847;48.830;9.116;2023-11-21T04:13:08;97239.22;;;11.57;66.65
13553;BME280;6847;48.830;9.116;2023-11-21T04:15:56;97010.00;;;10.09;66.27
13553;BME280;6847;48.830;9.116;2023-11-21T04:18:44;97268.25;;;11.70;66.83
13553;BME280;6847;48.830;9.116;2023-11-21T04:21:31;97292.91;;;11.87;66.77
13553;BME280;6847;48.830;9.116;2023-11-21T04:24:44;97266.66;;;11.69;67.11
13553;BME280;6847;48.830;9.116;2023-11-21T04:27:29;97292.91;;;11.87;66.87
13553;BME280;6847;48.830;9.116;2023-11-21T04:30:16;97319.84;;;11.97;66.94
13553;BME280;6847;48.830;9.116;2023-11-21T04:33:07;97263.31;;;11.44;67.29
13553;BME280;6847;48.830;9.116;2023-11-21T04:35:53;97306.91;;;11.62;67.23
13553;BME280;6847;48.830;9.116;2023-11-21T04:38:41;97136.59;;;10.44;66.81
13553;BME280;6847;48.830;9.116;2023-11-21T04:41:28;97304.38;;;11.52;66.86
13553;BME280;6847;48.830;9.116;2023-11-21T04:44:15;97308.78;;;11.47;67.45
13553;BME280;6847;48.830;9.116;2023-11-21T04:47:01;97325.97;;;11.57;66.64
13553;BME280;6847;48.830;9.116;2023-11-21T04:49:51;97319.72;;;11.42;66.79
13553;BME280;6847;48.830;9.116;2023-11-21T04:52:37;97291.91;;;11.18;67.47
13553;BME280;6847;48.830;9.116;2023-11-21T04:55:24;97288.88;;;11.06;66.88
13553;BME280;6847;48.830;9.116;2023-11-21T04:58:12;97277.06;;;10.97;67.31
13553;BME280;6847;48.830;9.116;2023-11-21T05:01:00;97337.53;;;11.30;67.13
13553;BME280;6847;48.830;9.116;2023-11-21T05:03:45;97338.91;;;11.27;67.14
13553;BME280;6847;48.830;9.116;2023-11-21T05:06:33;97334.09;;;11.24;66.64
13553;BME280;6847;48.830;9.116;2023-11-21T05:09:19;97305.13;;;11.06;66.95
13553;BME280;6847;48.830;9.116;2023-11-21T05:12:08;97331.88;;;11.26;66.95
13553;BME280;6847;48.830;9.116;2023-11-21T05:14:54;97339.72;;;11.28;67.44
13553;BME280;6847;48.830;9.116;2023-11-21T05:17:40;97342.94;;;11.30;66.56
13553;BME280;6847;48.830;9.116;2023-11-21T05:20:28;97341.56;;;11.32;66.65
13553;BME280;6847;48.830;9.116;2023-11-21T05:23:14;97345.78;;;11.38;67.29
13553;BME280;6847;48.830;9.116;2023-11-21T05:25:59;97357.06;;;11.45;67.40
13553;BME280;6847;48.830;9.116;2023-11-21T05:28:51;97327.50;;;11.30;67.17
13553;BME280;6847;48.830;9.116;2023-11-21T05:31:48;97360.72;;;11.55;66.68
13553;BME280;6847;48.830;9.116;2023-11-21T05:34:33;97362.81;;;11.58;66.65
13553;BME280;6847;48.830;9.116;2023-11-21T05:37:22;97366.56;;;11.62;66.16
13553;BME280;6847;48.830;9.116;2023-11-21T05:40:09;97371.41;;;11.65;66.65
13553;BME280;6847;48.830;9.116;2023-11-21T05:42:54;97370.09;;;11.62;66.25
13553;BME280;6847;48.830;9.116;2023-11-21T05:45:44;97370.38;;;11.61;66.38
13553;BME280;6847;48.830;9.116;2023-11-21T05:48:29;97369.34;;;11.57;66.60
13553;BME280;6847;48.830;9.116;2023-11-21T05:51:17;97376.38;;;11.58;66.83
13553;BME280;6847;48.830;9.116;2023-11-21T05:54:02;97379.59;;;11.60;66.43
13553;BME280;6847;48.830;9.116;2023-11-21T05:56:49;97368.34;;;11.53;66.08
13553;BME280;6847;48.830;9.116;2023-11-21T05:59:34;97374.75;;;11.57;66.28
13553;BME280;6847;48.830;9.116;2023-11-21T06:02:23;97338.84;;;11.32;66.68
13553;BME280;6847;48.830;9.116;2023-11-21T06:05:08;97385.03;;;11.60;66.95
13553;BME280;6847;48.830;9.116;2023-11-21T06:07:56;97386.72;;;11.56;66.50
13553;BME280;6847;48.830;9.116;2023-11-21T06:10:46;97335.78;;;11.20;66.46
13553;BME280;6847;48.830;9.116;2023-11-21T06:13:33;97370.13;;;11.43;66.47
13553;BME280;6847;48.830;9.116;2023-11-21T06:16:18;97394.84;;;11.56;66.47
13553;BME280;6847;48.830;9.116;2023-11-21T06:19:05;97390.03;;;11.53;67.17
13553;BME280;6847;48.830;9.116;2023-11-21T06:21:50;97397.53;;;11.56;66.53
13553;BME280;6847;48.830;9.116;2023-11-21T06:24:36;97403.78;;;11.56;66.55
13553;BME280;6847;48.830;9.116;2023-11-21T06:27:23;97411.63;;;11.58;66.34
13553;BME280;6847;48.830;9.116;2023-11-21T06:30:18;97374.50;;;11.39;66.53
13553;BME280;6847;48.830;9.116;2023-11-21T06:33:11;97390.03;;;11.53;67.09
13553;BME280;6847;48.830;9.116;2023-11-21T06:36:15;97413.06;;;11.69;66.49
13553;BME280;6847;48.830;9.116;2023-11-21T06:39:03;97387.91;;;11.49;67.13
13553;BME280;6847;48.830;9.116;2023-11-21T06:41:50;97417.56;;;11.60;66.73
13553;BME280;6847;48.830;9.116;2023-11-21T06:44:35;97426.78;;;11.59;67.11
13553;BME280;6847;48.830;9.116;2023-11-21T06:47:24;97359.75;;;11.13;66.33
13553;BME280;6847;48.830;9.116;2023-11-21T06:50:11;97432.22;;;11.59;66.73
13553;BME280;6847;48.830;9.116;2023-11-21T06:52:59;97415.53;;;11.52;67.38
13553;BME280;6847;48.830;9.116;2023-11-21T06:55:46;97429.44;;;11.64;66.26
13553;BME280;6847;48.830;9.116;2023-11-21T06:58:33;97436.16;;;11.66;67.16
13553;BME280;6847;48.830;9.116;2023-11-21T07:01:22;97439.66;;;11.67;66.69
13553;BME280;6847;48.830;9.116;2023-11-21T07:04:08;97442.38;;;11.67;66.48
13553;BME280;6847;48.830;9.116;2023-11-21T07:06:54;97450.09;;;11.78;66.18
13553;BME280;6847;48.830;9.116;2023-11-21T07:09:41;97451.44;;;11.81;66.53
13553;BME280;6847;48.830;9.116;2023-11-21T07:12:26;97453.03;;;11.82;66.20
13553;BME280;6847;48.830;9.116;2023-11-21T07:15:13;97458.16;;;11.83;66.56
13553;BME280;6847;48.830;9.116;2023-11-21T07:17:58;97455.13;;;11.85;66.67
13553;BME280;6847;48.830;9.116;2023-11-21T07:20:45;97454.56;;;11.88;66.58
13553;BME280;6847;48.830;9.116;2023-11-21T07:23:33;97467.03;;;11.89;66.03
13553;BME280;6847;48.830;9.116;2023-11-21T07:26:22;97415.53;;;11.52;66.61
13553;BME280;6847;48.830;9.116;2023-11-21T07:29:14;97465.50;;;11.83;67.10
13553;BME280;6847;48.830;9.116;2023-11-21T07:31:59;97458.25;;;11.78;66.40
13553;BME280;6847;48.830;9.116;2023-11-21T07:34:47;97481.00;;;11.96;66.83
13553;BME280;6847;48.830;9.116;2023-11-21T07:37:32;97480.84;;;12.06;66.84
13553;BME280;6847;48.830;9.116;2023-11-21T07:40:18;97482.59;;;12.16;66.64
13553;BME280;6847;48.830;9.116;2023-11-21T07:43:09;97472.03;;;12.14;66.38
13553;BME280;6847;48.830;9.116;2023-11-21T07:46:04;97243.03;;;10.77;66.36
13553;BME280;6847;48.830;9.116;2023-11-21T07:48:49;97491.19;;;12.37;65.98
13553;BME280;6847;48.830;9.116;2023-11-21T07:51:40;97490.00;;;12.43;66.59
13553;BME280;6847;48.830;9.116;2023-11-21T07:54:25;97473.78;;;12.38;66.06
13553;BME280;6847;48.830;9.116;2023-11-21T07:57:13;97495.84;;;12.50;65.96
13553;BME280;6847;48.830;9.116;2023-11-21T08:00:00;97493.81;;;12.55;66.49
13553;BME280;6847;48.830;9.116;2023-11-21T08:02:51;97492.34;;;12.63;65.98
13553;BME280;6847;48.830;9.116;2023-11-21T08:05:38;97495.38;;;12.75;66.40
13553;BME280;6847;48.830;9.116;2023-11-21T08:08:23;97499.63;;;12.81;65.89
13553;BME280;6847;48.830;9.116;2023-11-21T08:11:10;97502.03;;;12.96;66.11
13553;BME280;6847;48.830;9.116;2023-11-21T08:13:56;97476.97;;;13.00;65.92
13553;BME280;6847;48.830;9.116;2023-11-21T08:16:45;97506.19;;;13.21;65.71
13553;BME280;6847;48.830;9.116;2023-11-21T08:19:31;97483.63;;;13.21;65.62
13553;BME280;6847;48.830;9.116;2023-11-21T08:22:17;97502.22;;;13.41;65.87
13553;BME280;6847;48.830;9.116;2023-11-21T08:25:03;97507.31;;;13.56;65.38
13553;BME280;6847;48.830;9.116;2023-11-21T08:27:52;97521.59;;;13.76;65.55
13553;BME280;6847;48.830;9.116;2023-11-21T08:30:37;97513.06;;;13.91;65.28
13553;BME280;6847;48.830;9.116;2023-11-21T08:33:25;97522.75;;;14.19;65.30
13553;BME280;6847;48.830;9.116;2023-11-21T08:36:12;97501.84;;;14.28;64.93
13553;BME280;6847;48.830;9.116;2023-11-21T08:38:57;97512.56;;;14.78;64.46
13553;BME280;6847;48.830;9.116;2023-11-21T08:41:43;97525.41;;;15.26;64.23
13553;BME280;6847;48.830;9.116;2023-11-21T08:44:29;97519.50;;;15.41;63.72
13553;BME280;6847;48.830;9.116;2023-11-21T08:47:15;97501.50;;;15.23;64.18
13553;BME280;6847;48.830;9.116;2023-11-21T08:50:07;97515.22;;;15.09;64.43
13553;BME280;6847;48.830;9.116;2023-11-21T08:52:53;97528.22;;;15.03;64.52
13553;BME280;6847;48.830;9.116;2023-11-21T08:55:38;97538.28;;;14.94;64.24
13553;BME280;6847;48.830;9.116;2023-11-21T08:58:24;97540.66;;;14.87;64.65
13553;BME280;6847;48.830;9.116;2023-11-21T09:01:09;97546.38;;;14.77;64.77
13553;BME280;6847;48.830;9.116;2023-11-21T09:03:56;97547.25;;;14.64;64.99
13553;BME280;6847;48.830;9.116;2023-11-21T09:06:42;97547.81;;;14.52;65.16
13553;BME280;6847;48.830;9.116;2023-11-21T09:09:28;97533.25;;;14.34;65.23
13553;BME280;6847;48.830;9.116;2023-11-21T09:12:16;97546.38;;;14.32;65.31
13553;BME280;6847;48.830;9.116;2023-11-21T09:15:04;97527.19;;;14.15;65.38
13553;BME280;6847;48.830;9.116;2023-11-21T09:17:49;97540.94;;;14.10;65.48
13553;BME280;6847;48.830;9.116;2023-11-21T09:20:35;97538.47;;;14.00;65.45
13553;BME280;6847;48.830;9.116;2023-11-21T09:23:23;97556.13;;;14.11;65.50
13553;BME280;6847;48.830;9.116;2023-11-21T09:26:10;97528.03;;;13.80;65.30
13553;BME280;6847;48.830;9.116;2023-11-21T09:28:55;97236.97;;;11.91;65.14
13553;BME280;6847;48.830;9.116;2023-11-21T09:31:41;97285.91;;;12.13;65.26
13553;BME280;6847;48.830;9.116;2023-11-21T09:34:28;97373.25;;;12.70;65.45
13553;BME280;6847;48.830;9.116;2023-11-21T09:37:13;97556.53;;;13.82;65.53
13553;BME280;6847;48.830;9.116;2023-11-21T09:40:02;97559.66;;;13.89;65.57
13553;BME280;6847;48.830;9.116;2023-11-21T09:42:52;97571.34;;;13.90;65.63
13553;BME280;6847;48.830;9.116;2023-11-21T09:45:45;97579.81;;;13.88;65.56
13553;BME280;6847;48.830;9.116;2023-11-21T09:48:32;97544.81;;;13.59;65.44
13553;BME280;6847;48.830;9.116;2023-11-21T09:51:24;97571.16;;;13.73;65.71
13553;BME280;6847;48.830;9.116;2023-11-21T09:54:15;97580.84;;;13.79;65.56
13553;BME280;6847;48.830;9.116;2023-11-21T09:57:03;97583.06;;;13.77;65.63
13553;BME280;6847;48.830;9.116;2023-11-21T09:59:51;97541.78;;;13.47;65.30
13553;BME280;6847;48.830;9.116;2023-11-21T10:02:38;97570.56;;;13.62;65.46
13553;BME280;6847;48.830;9.116;2023-11-21T10:05:24;97584.06;;;13.67;65.30
13553;BME280;6847;48.830;9.116;2023-11-21T10:08:11;97589.31;;;13.63;65.65
13553;BME280;6847;48.830;9.116;2023-11-21T10:10:58;97580.47;;;13.58;65.77
13553;BME280;6847;48.830;9.116;2023-11-21T10:13:46;97590.63;;;13.52;65.46
13553;BME280;6847;48.830;9.116;2023-11-21T10:16:32;97582.28;;;13.49;65.71
13553;BME280;6847;48.830;9.116;2023-11-21T10:19:18;97582.88;;;13.46;65.74
13553;BME280;6847;48.830;9.116;2023-11-21T10:22:05;97588.13;;;13.42;65.78
13553;BME280;6847;48.830;9.116;2023-11-21T10:24:50;97588.53;;;13.49;65.56
13553;BME280;6847;48.830;9.116;2023-11-21T10:27:37;97582.59;;;13.61;65.78
13553;BME280;6847;48.830;9.116;2023-11-21T10:30:27;97585.28;;;13.75;65.66
13553;BME280;6847;48.830;9.116;2023-11-21T10:33:15;97533.41;;;13.57;65.29
13553;BME280;6847;48.830;9.116;2023-11-21T10:36:01;97591.06;;;14.09;65.25
13553;BME280;6847;48.830;9.116;2023-11-21T10:38:48;97590.91;;;14.14;65.34
13553;BME280;6847;48.830;9.116;2023-11-21T10:41:38;97594.44;;;14.15;65.33
13553;BME280;6847;48.830;9.116;2023-11-21T10:44:23;97604.50;;;14.28;65.34
13553;BME280;6847;48.830;9.116;2023-11-21T10:47:12;97600.63;;;14.42;64.84
13553;BME280;6847;48.830;9.116;2023-11-21T10:50:00;97596.19;;;14.47;64.98
13553;BME280;6847;48.830;9.116;2023-11-21T10:52:46;97526.66;;;13.91;65.10
13553;BME280;6847;48.830;9.116;2023-11-21T10:55:33;97604.66;;;14.31;65.08
13553;BME280;6847;48.830;9.116;2023-11-21T10:58:19;97599.22;;;14.31;65.22
13553;BME280;6847;48.830;9.116;2023-11-21T11:01:06;97596.59;;;14.40;64.80
13553;BME280;6847;48.830;9.116;2023-11-21T11:03:53;97590.22;;;14.44;64.89
13553;BME280;6847;48.830;9.116;2023-11-21T11:06:40;97586.50;;;14.40;64.95
13553;BME280;6847;48.830;9.116;2023-11-21T11:09:26;97611.47;;;14.56;64.99
13553;BME280;6847;48.830;9.116;2023-11-21T11:12:13;97601.94;;;14.67;64.92
13553;BME280;6847;48.830;9.116;2023-11-21T11:15:06;97602.59;;;14.95;64.73
13553;BME280;6847;48.830;9.116;2023-11-21T11:17:57;97594.28;;;15.40;64.25
13553;BME280;6847;48.830;9.116;2023-11-21T11:20:47;97535.69;;;15.85;64.00
13553;BME280;6847;48.830;9.116;2023-11-21T11:23:46;97574.69;;;16.46;63.36
13553;BME280;6847;48.830;9.116;2023-11-21T11:26:42;97597.53;;;16.68;63.20
13553;BME280;6847;48.830;9.116;2023-11-21T11:29:34;97606.53;;;16.77;63.41
13553;BME280;6847;48.830;9.116;2023-11-21T11:32:27;97612.66;;;16.74;63.04
13553;BME280;6847;48.830;9.116;2023-11-21T11:35:26;97604.94;;;16.67;63.61
13553;BME280;6847;48.830;9.116;2023-11-21T11:38:14;97599.63;;;16.71;63.34
13553;BME280;6847;48.830;9.116;2023-11-21T11:41:02;97607.34;;;16.77;63.14
13553;BME280;6847;48.830;9.116;2023-11-21T11:43:50;97597.84;;;16.75;63.18
13553;BME280;6847;48.830;9.116;2023-11-21T11:46:43;97535.84;;;16.32;63.20
13553;BME280;6847;48.830;9.116;2023-11-21T11:49:30;97586.13;;;16.65;63.16
13553;BME280;6847;48.830;9.116;2023-11-21T11:52:35;97618.25;;;16.86;63.46
13553;BME280;6847;48.830;9.116;2023-11-21T11:55:24;97559.91;;;16.47;63.33
13553;BME280;6847;48.830;9.116;2023-11-21T11:58:16;97602.19;;;16.67;63.29
13553;BME280;6847;48.830;9.116;2023-11-21T12:01:07;97597.53;;;16.50;62.96
13553;BME280;6847;48.830;9.116;2023-11-21T12:04:24;97605.88;;;16.45;63.40
13553;BME280;6847;48.830;9.116;2023-11-21T12:07:14;97604.59;;;16.17;63.57
13553;BME280;6847;48.830;9.116;2023-11-21T12:10:01;97581.22;;;15.68;63.84
13553;BME280;6847;48.830;9.116;2023-11-21T12:12:50;97595.00;;;15.54;64.07
13553;BME280;6847;48.830;9.116;2023-11-21T12:15:37;97623.03;;;15.46;64.05
13553;BME280;6847;48.830;9.116;2023-11-21T12:18:22;97607.22;;;15.26;64.24
13553;BME280;6847;48.830;9.116;2023-11-21T12:21:12;97546.38;;;14.77;64.54
13553;BME280;6847;48.830;9.116;2023-11-21T12:23:59;97623.88;;;15.15;64.42
13553;BME280;6847;48.830;9.116;2023-11-21T12:26:46;97628.22;;;15.16;64.42
13553;BME280;6847;48.830;9.116;2023-11-21T12:29:33;97625.59;;;15.11;64.44
13553;BME280;6847;48.830;9.116;2023-11-21T12:32:18;97624.84;;;15.19;64.25
13553;BME280;6847;48.830;9.116;2023-11-21T12:35:06;97617.41;;;15.11;64.38
13553;BME280;6847;48.830;9.116;2023-11-21T12:37:55;97624.22;;;15.23;64.20
13553;BME280;6847;48.830;9.116;2023-11-21T12:40:41;97628.56;;;15.24;64.20
13553;BME280;6847;48.830;9.116;2023-11-21T12:43:26;97628.41;;;15.29;63.86
13553;BME280;6847;48.830;9.116;2023-11-21T12:46:14;97572.47;;;15.00;64.06
13553;BME280;6847;48.830;9.116;2023-11-21T12:49:02;97632.69;;;15.52;63.65
13553;BME280;6847;48.830;9.116;2023-11-21T12:51:47;97625.56;;;15.73;63.73
13553;BME280;6847;48.830;9.116;2023-11-21T12:54:41;97616.81;;;16.28;63.08
13553;BME280;6847;48.830;9.116;2023-11-21T12:57:35;97598.50;;;16.46;62.63
13553;BME280;6847;48.830;9.116;2023-11-21T13:00:31;97626.00;;;16.49;63.02
13553;BME280;6847;48.830;9.116;2023-11-21T13:03:21;97644.94;;;16.20;63.32
13553;BME280;6847;48.830;9.116;2023-11-21T13:06:15;97648.53;;;15.72;63.46
13553;BME280;6847;48.830;9.116;2023-11-21T13:09:05;97648.72;;;15.45;63.99
13553;BME280;6847;48.830;9.116;2023-11-21T13:11:59;97560.38;;;14.62;64.11
13553;BME280;6847;48.830;9.116;2023-11-21T13:14:48;97658.06;;;14.99;64.36
13553;BME280;6847;48.830;9.116;2023-11-21T13:17:35;97637.66;;;14.66;64.39
13553;BME280;6847;48.830;9.116;2023-11-21T13:20:22;97654.94;;;14.61;64.28
13553;BME280;6847;48.830;9.116;2023-11-21T13:23:13;97653.28;;;14.38;64.30
13553;BME280;6847;48.830;9.116;2023-11-21T13:25:59;97663.09;;;14.25;64.36
13553;BME280;6847;48.830;9.116;2023-11-21T13:28:48;97651.16;;;13.99;64.63
13553;BME280;6847;48.830;9.116;2023-11-21T13:31:34;97646.13;;;13.79;64.59
13553;BME280;6847;48.830;9.116;2023-11-21T13:34:23;97663.16;;;13.84;64.63
13553;BME280;6847;48.830;9.116;2023-11-21T13:37:14;97675.16;;;13.83;64.76
13553;BME280;6847;48.830;9.116;2023-11-21T13:40:00;97661.25;;;13.71;64.72
13553;BME280;6847;48.830;9.116;2023-11-21T13:42:49;97675.56;;;13.77;64.71
13553;BME280;6847;48.830;9.116;2023-11-21T13:45:37;97675.06;;;13.75;64.72
13553;BME280;6847;48.830;9.116;2023-11-21T13:48:23;97684.84;;;13.76;64.66
13553;BME280;6847;48.830;9.116;2023-11-21T13:51:16;97683.22;;;13.75;64.69
13553;BME280;6847;48.830;9.116;2023-11-21T13:54:06;97691.88;;;13.77;64.70
13553;BME280;6847;48.830;9.116;2023-11-21T13:56:53;97680.19;;;13.76;64.45
13553;BME280;6847;48.830;9.116;2023-11-21T13:59:39;97684.22;;;13.79;64.54
13553;BME280;6847;48.830;9.116;2023-11-21T14:02:25;97695.13;;;13.79;64.91
13553;BME280;6847;48.830;9.116;2023-11-21T14:05:18;97701.06;;;13.81;64.83
13553;BME280;6847;48.830;9.116;2023-11-21T14:08:13;97695.72;;;13.76;64.79
13553;BME280;6847;48.830;9.116;2023-11-21T14:11:05;97706.19;;;13.82;64.62
13553;BME280;6847;48.830;9.116;2023-11-21T14:13:55;97702.97;;;13.80;64.63
13553;BME280;6847;48.830;9.116;2023-11-21T14:16:43;97709.44;;;13.70;64.45
13553;BME280;6847;48.830;9.116;2023-11-21T14:19:28;97710.63;;;13.64;65.04
13553;BME280;6847;48.830;9.116;2023-11-21T14:22:16;97725.72;;;13.57;64.74
13553;BME280;6847;48.830;9.116;2023-11-21T14:25:03;97728.03;;;13.50;64.73
13553;BME280;6847;48.830;9.116;2023-11-21T14:27:50;97730.53;;;13.46;64.91
13553;BME280;6847;48.830;9.116;2023-11-21T14:30:35;97727.94;;;13.41;64.92
13553;BME280;6847;48.830;9.116;2023-11-21T14:33:21;97725.50;;;13.40;64.73
13553;BME280;6847;48.830;9.116;2023-11-21T14:36:08;97684.50;;;13.04;64.95
13553;BME280;6847;48.830;9.116;2023-11-21T14:38:54;97736.97;;;13.37;64.40
13553;BME280;6847;48.830;9.116;2023-11-21T14:41:39;97730.66;;;13.41;65.17
13553;BME280;6847;48.830;9.116;2023-11-21T14:44:26;97728.94;;;13.45;65.07
13553;BME280;6847;48.830;9.116;2023-11-21T14:47:16;97739.63;;;13.55;65.03
13553;BME280;6847;48.830;9.116;2023-11-21T14:50:03;97735.59;;;13.53;64.69
13553;BME280;6847;48.830;9.116;2023-11-21T14:53:11;97747.72;;;13.60;64.64
13553;BME280;6847;48.830;9.116;2023-11-21T14:55:57;97737.50;;;13.52;64.70
13553;BME280;6847;48.830;9.116;2023-11-21T14:58:44;97754.44;;;13.63;64.57
13553;BME280;6847;48.830;9.116;2023-11-21T15:01:30;97737.00;;;13.50;64.71
13553;BME280;6847;48.830;9.116;2023-11-21T15:04:25;97761.78;;;13.62;64.78